sensor_id;sensor_type;location;lat;lon;timestamp;pressure;altitude;pressure_sealevel;temperature;humidity
7433;BME280;32233;49.500;7.764;2023-12-20T00:01:45;98505.78;;;2.26;100.00
7433;BME280;32233;49.500;7.764;2023-12-20T00:04:12;98509.19;;;2.27;100.00
7433;BME280;32233;49.500;7.764;2023-12-20T00:06:39;98504.97;;;2.26;100.00
7433;BME280;32233;49.500;7.764;2023-12-20T00:09:05;98498.59;;;2.28;100.00
7433;BME280;32233;49.500;7.764;2023-12-20T00:11:32;98506.44;;;2.28;100.00
7433;BME280;32233;49.500;7.764;2023-12-20T00:13:58;98505.16;;;2.32;100.00
7433;BME280;32233;49.500;7.764;2023-12-20T00:16:25;98509.72;;;2.30;100.00
7433;BME280;32233;49.500;7.764;2023-12-20T00:18:52;98503.97;;;2.27;100.00
7433;BME280;32233;49.500;7.764;2023-12-20T00:21:18;98505.50;;;2.29;100.00
7433;BME280;32233;49.500;7.764;2023-12-20T00:23:45;98504.81;;;2.27;100.00
7433;BME280;32233;49.500;7.764;2023-12-20T00:26:12;98495.34;;;2.26;100.00
7433;BME280;32233;49.500;7.764;2023-12-20T00:28:39;98494.25;;;2.29;100.00
7433;BME280;32233;49.500;7.764;2023-12-20T00:31:05;98490.94;;;2.27;100.00
7433;BME280;32233;49.500;7.764;2023-12-20T00:33:32;98493.38;;;2.28;100.00
7433;BME280;32233;49.500;7.764;2023-12-20T00:35:59;98489.03;;;2.29;100.00
7433;BME280;32233;49.500;7.764;2023-12-20T00:38:25;98482.97;;;2.28;100.00
7433;BME280;32233;49.500;7.764;2023-12-20T00:40:52;98475.22;;;2.36;100.00
7433;BME280;32233;49.500;7.764;2023-12-20T00:43:18;98483.13;;;2.27;100.00
7433;BME280;32233;49.500;7.764;2023-12-20T00:45:45;98486.91;;;2.32;100.00
7433;BME280;32233;49.500;7.764;2023-12-20T00:48:12;98482.66;;;2.31;100.00
7433;BME280;32233;49.500;7.764;2023-12-20T00:50:38;98480.50;;;2.27;100.00
7433;BME280;32233;49.500;7.764;2023-12-20T00:53:05;98486.53;;;2.27;100.00
7433;BME280;32233;49.500;7.764;2023-12-20T00:55:32;98474.84;;;2.31;100.00
7433;BME280;32233;49.500;7.764;2023-12-20T00:57:58;98462.94;;;2.29;100.00
7433;BME280;32233;49.500;7.764;2023-12-20T01:00:26;98469.63;;;2.31;100.00
7433;BME280;32233;49.500;7.764;2023-12-20T01:02:53;98460.16;;;2.30;100.00
7433;BME280;32233;49.500;7.764;2023-12-20T01:05:20;98457.41;;;2.32;100.00
7433;BME280;32233;49.500;7.764;2023-12-20T01:07:49;98459.19;;;2.31;100.00
7433;BME280;32233;49.500;7.764;2023-12-20T01:10:16;98453.97;;;2.31;100.00
7433;BME280;32233;49.500;7.764;2023-12-20T01:12:43;98469.63;;;2.31;100.00
7433;BME280;32233;49.500;7.764;2023-12-20T01:15:10;98467.38;;;2.36;100.00
7433;BME280;32233;49.500;7.764;2023-12-20T01:17:37;98477.41;;;2.41;100.00
7433;BME280;32233;49.500;7.764;2023-12-20T01:20:04;98467.25;;;2.38;100.00
7433;BME280;32233;49.500;7.764;2023-12-20T01:22:30;98467.91;;;2.40;100.00
7433;BME280;32233;49.500;7.764;2023-12-20T01:24:57;98468.88;;;2.39;100.00
7433;BME280;32233;49.500;7.764;2023-12-20T01:27:23;98460.81;;;2.32;100.00
7433;BME280;32233;49.500;7.764;2023-12-20T01:29:50;98460.91;;;2.40;100.00
7433;BME280;32233;49.500;7.764;2023-12-20T01:32:17;98454.56;;;2.43;100.00
7433;BME280;32233;49.500;7.764;2023-12-20T01:34:43;98448.84;;;2.39;100.00
7433;BME280;32233;49.500;7.764;2023-12-20T01:37:10;98440.88;;;2.41;100.00
7433;BME280;32233;49.500;7.764;2023-12-20T01:39:37;98436.78;;;2.38;100.00
7433;BME280;32233;49.500;7.764;2023-12-20T01:42:03;98448.84;;;2.39;100.00
7433;BME280;32233;49.500;7.764;2023-12-20T01:44:30;98464.50;;;2.39;100.00
7433;BME280;32233;49.500;7.764;2023-12-20T01:46:57;98468.44;;;2.43;100.00
7433;BME280;32233;49.500;7.764;2023-12-20T01:49:24;98469.78;;;2.47;100.00
7433;BME280;32233;49.500;7.764;2023-12-20T01:51:51;98483.00;;;2.46;100.00
7433;BME280;32233;49.500;7.764;2023-12-20T01:54:19;98476.78;;;2.47;100.00
7433;BME280;32233;49.500;7.764;2023-12-20T01:56:46;98463.91;;;2.45;100.00
7433;BME280;32233;49.500;7.764;2023-12-20T01:59:15;98458.53;;;2.47;100.00
7433;BME280;32233;49.500;7.764;2023-12-20T02:01:41;98465.25;;;2.50;100.00
7433;BME280;32233;49.500;7.764;2023-12-20T02:04:08;98473.22;;;2.48;100.00
7433;BME280;32233;49.500;7.764;2023-12-20T02:06:35;98470.47;;;2.50;100.00
7433;BME280;32233;49.500;7.764;2023-12-20T02:09:03;98471.13;;;2.52;100.00
7433;BME280;32233;49.500;7.764;2023-12-20T02:11:29;98481.28;;;2.55;100.00
7433;BME280;32233;49.500;7.764;2023-12-20T02:13:56;98464.44;;;2.49;100.00
7433;BME280;32233;49.500;7.764;2023-12-20T02:16:22;98458.91;;;2.52;100.00
7433;BME280;32233;49.500;7.764;2023-12-20T02:18:49;98461.66;;;2.51;100.00
7433;BME280;32233;49.500;7.764;2023-12-20T02:21:16;98469.84;;;2.56;100.00
7433;BME280;32233;49.500;7.764;2023-12-20T02:23:42;98463.00;;;2.55;100.00
7433;BME280;32233;49.500;7.764;2023-12-20T02:26:09;98458.31;;;2.58;100.00
7433;BME280;32233;49.500;7.764;2023-12-20T02:28:36;98449.16;;;2.54;100.00
7433;BME280;32233;49.500;7.764;2023-12-20T02:31:03;98443.75;;;2.56;100.00
7433;BME280;32233;49.500;7.764;2023-12-20T02:33:30;98453.22;;;2.57;100.00
7433;BME280;32233;49.500;7.764;2023-12-20T02:35:56;98454.56;;;2.61;100.00
7433;BME280;32233;49.500;7.764;2023-12-20T02:38:23;98460.63;;;2.61;100.00
7433;BME280;32233;49.500;7.764;2023-12-20T02:40:49;98464.88;;;2.62;100.00
7433;BME280;32233;49.500;7.764;2023-12-20T02:43:16;98455.09;;;2.64;100.00
7433;BME280;32233;49.500;7.764;2023-12-20T02:45:43;98449.22;;;2.62;100.00
7433;BME280;32233;49.500;7.764;2023-12-20T02:48:09;98440.84;;;2.59;100.00
7433;BME280;32233;49.500;7.764;2023-12-20T02:50:36;98452.19;;;2.67;100.00
7433;BME280;32233;49.500;7.764;2023-12-20T02:53:03;98470.44;;;2.67;100.00
7433;BME280;32233;49.500;7.764;2023-12-20T02:55:29;98472.09;;;2.68;100.00
7433;BME280;32233;49.500;7.764;2023-12-20T02:57:56;98478.00;;;2.70;100.00
7433;BME280;32233;49.500;7.764;2023-12-20T03:00:22;98473.41;;;2.72;100.00
7433;BME280;32233;49.500;7.764;2023-12-20T03:02:49;98475.91;;;2.74;100.00
7433;BME280;32233;49.500;7.764;2023-12-20T03:05:16;98480.66;;;2.79;100.00
7433;BME280;32233;49.500;7.764;2023-12-20T03:07:43;98474.31;;;2.81;100.00
7433;BME280;32233;49.500;7.764;2023-12-20T03:10:10;98483.81;;;2.82;100.00
7433;BME280;32233;49.500;7.764;2023-12-20T03:12:48;98486.25;;;2.84;100.00
7433;BME280;32233;49.500;7.764;2023-12-20T03:15:15;98474.69;;;2.86;100.00
7433;BME280;32233;49.500;7.764;2023-12-20T03:17:42;98485.13;;;2.86;100.00
7433;BME280;32233;49.500;7.764;2023-12-20T03:20:09;98485.94;;;2.87;100.00
7433;BME280;32233;49.500;7.764;2023-12-20T03:22:36;98476.16;;;2.89;100.00
7433;BME280;32233;49.500;7.764;2023-12-20T03:25:02;98474.38;;;2.89;100.00
7433;BME280;32233;49.500;7.764;2023-12-20T03:27:29;98481.38;;;2.89;100.00
7433;BME280;32233;49.500;7.764;2023-12-20T03:29:56;98474.22;;;2.91;100.00
7433;BME280;32233;49.500;7.764;2023-12-20T03:32:22;98486.47;;;2.90;100.00
7433;BME280;32233;49.500;7.764;2023-12-20T03:34:49;98485.19;;;2.94;100.00
7433;BME280;32233;49.500;7.764;2023-12-20T03:37:16;98485.84;;;2.96;100.00
7433;BME280;32233;49.500;7.764;2023-12-20T03:39:42;98488.47;;;2.96;100.00
7433;BME280;32233;49.500;7.764;2023-12-20T03:42:09;98491.38;;;2.93;100.00
7433;BME280;32233;49.500;7.764;2023-12-20T03:44:38;98493.97;;;2.93;100.00
7433;BME280;32233;49.500;7.764;2023-12-20T03:47:06;98490.09;;;2.97;100.00
7433;BME280;32233;49.500;7.764;2023-12-20T03:49:32;98493.69;;;2.96;100.00
7433;BME280;32233;49.500;7.764;2023-12-20T03:51:59;98492.56;;;2.99;100.00
7433;BME280;32233;49.500;7.764;2023-12-20T03:54:26;98501.22;;;3.00;100.00
7433;BME280;32233;49.500;7.764;2023-12-20T03:56:52;98501.75;;;3.03;100.00
7433;BME280;32233;49.500;7.764;2023-12-20T03:59:19;98504.06;;;3.06;100.00
7433;BME280;32233;49.500;7.764;2023-12-20T04:01:45;98493.28;;;3.09;100.00
7433;BME280;32233;49.500;7.764;2023-12-20T04:04:13;98508.31;;;3.07;100.00
7433;BME280;32233;49.500;7.764;2023-12-20T04:06:40;98511.44;;;3.11;100.00
7433;BME280;32233;49.500;7.764;2023-12-20T04:09:07;98517.31;;;3.13;100.00
7433;BME280;32233;49.500;7.764;2023-12-20T04:11:36;98503.13;;;3.15;100.00
7433;BME280;32233;49.500;7.764;2023-12-20T04:14:03;98487.97;;;3.19;100.00
7433;BME280;32233;49.500;7.764;2023-12-20T04:16:31;98490.72;;;3.17;100.00
7433;BME280;32233;49.500;7.764;2023-12-20T04:18:57;98492.75;;;3.23;100.00
7433;BME280;32233;49.500;7.764;2023-12-20T04:21:24;98491.25;;;3.21;100.00
7433;BME280;32233;49.500;7.764;2023-12-20T04:23:51;98496.00;;;3.26;100.00
7433;BME280;32233;49.500;7.764;2023-12-20T04:26:17;98512.50;;;3.26;100.00
7433;BME280;32233;49.500;7.764;2023-12-20T04:28:44;98512.81;;;3.23;100.00
7433;BME280;32233;49.500;7.764;2023-12-20T04:31:10;98517.72;;;3.26;100.00
7433;BME280;32233;49.500;7.764;2023-12-20T04:33:37;98523.13;;;3.25;100.00
7433;BME280;32233;49.500;7.764;2023-12-20T04:36:04;98518.72;;;3.25;100.00
7433;BME280;32233;49.500;7.764;2023-12-20T04:38:30;98521.78;;;3.20;100.00
7433;BME280;32233;49.500;7.764;2023-12-20T04:40:57;98521.31;;;3.25;100.00
7433;BME280;32233;49.500;7.764;2023-12-20T04:43:24;98515.28;;;3.25;100.00
7433;BME280;32233;49.500;7.764;2023-12-20T04:45:51;98522.94;;;3.26;100.00
7433;BME280;32233;49.500;7.764;2023-12-20T04:48:18;98510.06;;;3.25;100.00
7433;BME280;32233;49.500;7.764;2023-12-20T04:50:44;98513.47;;;3.25;100.00
7433;BME280;32233;49.500;7.764;2023-12-20T04:53:11;98518.88;;;3.23;100.00
7433;BME280;32233;49.500;7.764;2023-12-20T04:55:38;98512.66;;;3.25;100.00
7433;BME280;32233;49.500;7.764;2023-12-20T04:58:05;98523.28;;;3.23;100.00
7433;BME280;32233;49.500;7.764;2023-12-20T05:00:32;98517.88;;;3.25;100.00
7433;BME280;32233;49.500;7.764;2023-12-20T05:02:59;98525.72;;;3.25;100.00
7433;BME280;32233;49.500;7.764;2023-12-20T05:05:26;98522.00;;;3.27;100.00
7433;BME280;32233;49.500;7.764;2023-12-20T05:07:53;98522.66;;;3.29;100.00
7433;BME280;32233;49.500;7.764;2023-12-20T05:10:19;98527.34;;;3.26;100.00
7433;BME280;32233;49.500;7.764;2023-12-20T05:12:46;98526.41;;;3.27;100.00
7433;BME280;32233;49.500;7.764;2023-12-20T05:15:12;98527.88;;;3.29;100.00
7433;BME280;32233;49.500;7.764;2023-12-20T05:17:39;98523.63;;;3.28;100.00
7433;BME280;32233;49.500;7.764;2023-12-20T05:20:06;98534.44;;;3.33;100.00
7433;BME280;32233;49.500;7.764;2023-12-20T05:22:33;98539.53;;;3.35;100.00
7433;BME280;32233;49.500;7.764;2023-12-20T05:24:59;98552.72;;;3.33;100.00
7433;BME280;32233;49.500;7.764;2023-12-20T05:27:26;98563.03;;;3.35;100.00
7433;BME280;32233;49.500;7.764;2023-12-20T05:29:53;98551.56;;;3.28;100.00
7433;BME280;32233;49.500;7.764;2023-12-20T05:32:23;98566.25;;;3.29;100.00
7433;BME280;32233;49.500;7.764;2023-12-20T05:34:50;98565.28;;;3.30;100.00
7433;BME280;32233;49.500;7.764;2023-12-20T05:37:17;98568.34;;;3.25;100.00
7433;BME280;32233;49.500;7.764;2023-12-20T05:39:43;98569.03;;;3.27;100.00
7433;BME280;32233;49.500;7.764;2023-12-20T05:42:10;98580.75;;;3.23;100.00
7433;BME280;32233;49.500;7.764;2023-12-20T05:44:36;98592.59;;;3.17;100.00
7433;BME280;32233;49.500;7.764;2023-12-20T05:47:03;98594.03;;;3.12;100.00
7433;BME280;32233;49.500;7.764;2023-12-20T05:49:30;98602.44;;;3.06;100.00
7433;BME280;32233;49.500;7.764;2023-12-20T05:51:58;98589.84;;;3.01;100.00
7433;BME280;32233;49.500;7.764;2023-12-20T05:54:24;98593.59;;;2.98;100.00
7433;BME280;32233;49.500;7.764;2023-12-20T05:56:51;98597.56;;;3.03;100.00
7433;BME280;32233;49.500;7.764;2023-12-20T05:59:17;98595.97;;;2.92;100.00
7433;BME280;32233;49.500;7.764;2023-12-20T06:01:44;98604.50;;;2.94;100.00
7433;BME280;32233;49.500;7.764;2023-12-20T06:04:11;98599.28;;;2.94;100.00
7433;BME280;32233;49.500;7.764;2023-12-20T06:06:43;98626.66;;;3.08;100.00
7433;BME280;32233;49.500;7.764;2023-12-20T06:09:10;98635.31;;;2.90;100.00
7433;BME280;32233;49.500;7.764;2023-12-20T06:11:37;98637.88;;;2.72;100.00
7433;BME280;32233;49.500;7.764;2023-12-20T06:14:04;98639.56;;;2.64;100.00
7433;BME280;32233;49.500;7.764;2023-12-20T06:16:31;98655.22;;;2.64;100.00
7433;BME280;32233;49.500;7.764;2023-12-20T06:18:57;98649.34;;;2.62;100.00
7433;BME280;32233;49.500;7.764;2023-12-20T06:21:24;98652.59;;;2.36;100.00
7433;BME280;32233;49.500;7.764;2023-12-20T06:23:51;98660.16;;;2.02;100.00
7433;BME280;32233;49.500;7.764;2023-12-20T06:26:17;98644.78;;;2.09;100.00
7433;BME280;32233;49.500;7.764;2023-12-20T06:28:44;98652.75;;;1.97;100.00
7433;BME280;32233;49.500;7.764;2023-12-20T06:31:11;98644.94;;;1.97;100.00
7433;BME280;32233;49.500;7.764;2023-12-20T06:33:38;98629.19;;;2.27;100.00
7433;BME280;32233;49.500;7.764;2023-12-20T06:36:07;98636.84;;;2.38;100.00
7433;BME280;32233;49.500;7.764;2023-12-20T06:38:33;98642.22;;;2.27;100.00
7433;BME280;32233;49.500;7.764;2023-12-20T06:41:00;98642.00;;;2.10;100.00
7433;BME280;32233;49.500;7.764;2023-12-20T06:43:27;98650.34;;;1.77;100.00
7433;BME280;32233;49.500;7.764;2023-12-20T06:46:11;98642.41;;;1.68;100.00
7433;BME280;32233;49.500;7.764;2023-12-20T06:48:39;98649.94;;;1.71;100.00
7433;BME280;32233;49.500;7.764;2023-12-20T06:51:12;98637.56;;;1.83;100.00
7433;BME280;32233;49.500;7.764;2023-12-20T06:53:38;98634.66;;;1.86;100.00
7433;BME280;32233;49.500;7.764;2023-12-20T06:56:05;98635.75;;;1.93;100.00
7433;BME280;32233;49.500;7.764;2023-12-20T06:58:32;98639.56;;;2.09;100.00
7433;BME280;32233;49.500;7.764;2023-12-20T07:00:58;98647.44;;;2.27;100.00
7433;BME280;32233;49.500;7.764;2023-12-20T07:03:25;98641.78;;;2.31;100.00
7433;BME280;32233;49.500;7.764;2023-12-20T07:05:52;98656.91;;;2.28;100.00
7433;BME280;32233;49.500;7.764;2023-12-20T07:08:18;98660.34;;;2.28;100.00
7433;BME280;32233;49.500;7.764;2023-12-20T07:10:45;98652.59;;;2.36;100.00
7433;BME280;32233;49.500;7.764;2023-12-20T07:13:12;98664.00;;;2.35;100.00
7433;BME280;32233;49.500;7.764;2023-12-20T07:15:40;98666.34;;;2.38;100.00
7433;BME280;32233;49.500;7.764;2023-12-20T07:18:06;98670.75;;;2.38;100.00
7433;BME280;32233;49.500;7.764;2023-12-20T07:20:33;98667.78;;;2.23;100.00
7433;BME280;32233;49.500;7.764;2023-12-20T07:23:00;98664.19;;;2.24;100.00
7433;BME280;32233;49.500;7.764;2023-12-20T07:25:27;98675.47;;;2.15;100.00
7433;BME280;32233;49.500;7.764;2023-12-20T07:27:54;98680.03;;;2.13;100.00
7433;BME280;32233;49.500;7.764;2023-12-20T07:30:20;98685.25;;;2.03;100.00
7433;BME280;32233;49.500;7.764;2023-12-20T07:32:47;98686.94;;;1.94;100.00
7433;BME280;32233;49.500;7.764;2023-12-20T07:35:15;98688.03;;;1.92;100.00
7433;BME280;32233;49.500;7.764;2023-12-20T07:37:43;98684.22;;;2.33;100.00
7433;BME280;32233;49.500;7.764;2023-12-20T07:40:10;98693.91;;;2.13;100.00
7433;BME280;32233;49.500;7.764;2023-12-20T07:42:37;98702.84;;;2.01;100.00
7433;BME280;32233;49.500;7.764;2023-12-20T07:45:04;98706.56;;;1.89;100.00
7433;BME280;32233;49.500;7.764;2023-12-20T07:47:30;98713.69;;;1.87;100.00
7433;BME280;32233;49.500;7.764;2023-12-20T07:49:57;98713.00;;;1.75;100.00
7433;BME280;32233;49.500;7.764;2023-12-20T07:52:24;98728.91;;;1.91;100.00
7433;BME280;32233;49.500;7.764;2023-12-20T07:54:51;98731.50;;;1.91;100.00
7433;BME280;32233;49.500;7.764;2023-12-20T07:57:17;98733.47;;;1.89;100.00
7433;BME280;32233;49.500;7.764;2023-12-20T07:59:44;98739.91;;;1.85;100.00
7433;BME280;32233;49.500;7.764;2023-12-20T08:02:11;98740.19;;;1.82;100.00
7433;BME280;32233;49.500;7.764;2023-12-20T08:04:37;98738.25;;;1.74;100.00
7433;BME280;32233;49.500;7.764;2023-12-20T08:07:04;98735.41;;;1.68;100.00
7433;BME280;32233;49.500;7.764;2023-12-20T08:09:30;98741.69;;;1.75;100.00
7433;BME280;32233;49.500;7.764;2023-12-20T08:11:58;98737.44;;;1.74;100.00
7433;BME280;32233;49.500;7.764;2023-12-20T08:14:26;98740.88;;;1.74;100.00
7433;BME280;32233;49.500;7.764;2023-12-20T08:16:52;98745.66;;;1.89;100.00
7433;BME280;32233;49.500;7.764;2023-12-20T08:19:19;98753.06;;;2.03;100.00
7433;BME280;32233;49.500;7.764;2023-12-20T08:21:46;98756.78;;;2.01;100.00
7433;BME280;32233;49.500;7.764;2023-12-20T08:24:12;98764.31;;;1.94;100.00
7433;BME280;32233;49.500;7.764;2023-12-20T08:26:39;98761.44;;;1.97;100.00
7433;BME280;32233;49.500;7.764;2023-12-20T08:29:05;98759.78;;;1.86;100.00
7433;BME280;32233;49.500;7.764;2023-12-20T08:31:32;98749.91;;;1.90;100.00
7433;BME280;32233;49.500;7.764;2023-12-20T08:33:59;98761.41;;;2.07;100.00
7433;BME280;32233;49.500;7.764;2023-12-20T08:36:26;98762.91;;;2.19;100.00
7433;BME280;32233;49.500;7.764;2023-12-20T08:38:52;98759.88;;;2.70;100.00
7433;BME280;32233;49.500;7.764;2023-12-20T08:41:20;98761.75;;;2.51;100.00
7433;BME280;32233;49.500;7.764;2023-12-20T08:43:47;98759.69;;;2.54;100.00
7433;BME280;32233;49.500;7.764;2023-12-20T08:46:14;98777.34;;;2.60;100.00
7433;BME280;32233;49.500;7.764;2023-12-20T08:48:41;98774.91;;;2.59;100.00
7433;BME280;32233;49.500;7.764;2023-12-20T08:51:10;98761.97;;;2.67;100.00
7433;BME280;32233;49.500;7.764;2023-12-20T08:53:36;98761.53;;;2.71;100.00
7433;BME280;32233;49.500;7.764;2023-12-20T08:56:03;98767.84;;;2.69;100.00
7433;BME280;32233;49.500;7.764;2023-12-20T08:58:30;98764.09;;;2.81;100.00
7433;BME280;32233;49.500;7.764;2023-12-20T09:00:57;98767.53;;;2.82;100.00
7433;BME280;32233;49.500;7.764;2023-12-20T09:03:24;98770.63;;;2.95;100.00
7433;BME280;32233;49.500;7.764;2023-12-20T09:05:51;98767.16;;;3.04;100.00
7433;BME280;32233;49.500;7.764;2023-12-20T09:08:18;98772.31;;;3.14;100.00
7433;BME280;32233;49.500;7.764;2023-12-20T09:10:44;98777.94;;;3.19;100.00
7433;BME280;32233;49.500;7.764;2023-12-20T09:13:11;98783.88;;;3.11;100.00
7433;BME280;32233;49.500;7.764;2023-12-20T09:15:38;98779.56;;;3.20;100.00
7433;BME280;32233;49.500;7.764;2023-12-20T09:18:05;98786.88;;;3.16;100.00
7433;BME280;32233;49.500;7.764;2023-12-20T09:20:33;98788.16;;;3.30;100.00
7433;BME280;32233;49.500;7.764;2023-12-20T09:23:00;98791.84;;;3.37;100.00
7433;BME280;32233;49.500;7.764;2023-12-20T09:25:26;98795.72;;;3.33;100.00
7433;BME280;32233;49.500;7.764;2023-12-20T09:27:53;98790.94;;;3.29;100.00
7433;BME280;32233;49.500;7.764;2023-12-20T09:30:20;98784.88;;;3.56;100.00
7433;BME280;32233;49.500;7.764;2023-12-20T09:32:54;98786.34;;;3.58;100.00
7433;BME280;32233;49.500;7.764;2023-12-20T09:35:21;98795.59;;;3.53;100.00
7433;BME280;32233;49.500;7.764;2023-12-20T09:37:49;98795.44;;;3.54;100.00
7433;BME280;32233;49.500;7.764;2023-12-20T09:40:18;98789.94;;;3.57;100.00
7433;BME280;32233;49.500;7.764;2023-12-20T09:43:02;98797.78;;;3.57;100.00
7433;BME280;32233;49.500;7.764;2023-12-20T09:45:31;98799.66;;;3.47;100.00
7433;BME280;32233;49.500;7.764;2023-12-20T09:47:59;98792.22;;;3.42;100.00
7433;BME280;32233;49.500;7.764;2023-12-20T09:50:27;98789.59;;;3.42;100.00
7433;BME280;32233;49.500;7.764;2023-12-20T09:52:56;98785.63;;;3.38;100.00
7433;BME280;32233;49.500;7.764;2023-12-20T09:55:27;98778.03;;;3.27;100.00
7433;BME280;32233;49.500;7.764;2023-12-20T09:57:54;98780.31;;;3.30;100.00
7433;BME280;32233;49.500;7.764;2023-12-20T10:00:21;98777.22;;;3.27;100.00
7433;BME280;32233;49.500;7.764;2023-12-20T10:02:59;98768.41;;;3.28;100.00
7433;BME280;32233;49.500;7.764;2023-12-20T10:05:31;98769.88;;;3.30;100.00
7433;BME280;32233;49.500;7.764;2023-12-20T10:08:00;98774.44;;;3.28;100.00
7433;BME280;32233;49.500;7.764;2023-12-20T10:10:33;98772.81;;;3.27;100.00
7433;BME280;32233;49.500;7.764;2023-12-20T10:13:12;98769.38;;;3.27;100.00
7433;BME280;32233;49.500;7.764;2023-12-20T10:15:40;98769.50;;;3.25;100.00
7433;BME280;32233;49.500;7.764;2023-12-20T10:18:08;98760.56;;;3.28;100.00
7433;BME280;32233;49.500;7.764;2023-12-20T10:20:35;98755.47;;;3.26;100.00
7433;BME280;32233;49.500;7.764;2023-12-20T10:23:03;98743.09;;;3.28;100.00
7433;BME280;32233;49.500;7.764;2023-12-20T10:25:30;98738.97;;;3.26;100.00
7433;BME280;32233;49.500;7.764;2023-12-20T10:28:13;98740.75;;;3.25;100.00
7433;BME280;32233;49.500;7.764;2023-12-20T10:30:40;98741.06;;;3.22;100.00
7433;BME280;32233;49.500;7.764;2023-12-20T10:33:08;98741.47;;;3.27;100.00
7433;BME280;32233;49.500;7.764;2023-12-20T10:35:36;98746.53;;;3.29;100.00
7433;BME280;32233;49.500;7.764;2023-12-20T10:38:06;98750.94;;;3.28;100.00
7433;BME280;32233;49.500;7.764;2023-12-20T10:40:36;98737.03;;;3.28;100.00
7433;BME280;32233;49.500;7.764;2023-12-20T10:43:08;98742.00;;;3.31;100.00
7433;BME280;32233;49.500;7.764;2023-12-20T10:45:35;98730.94;;;3.37;100.00
7433;BME280;32233;49.500;7.764;2023-12-20T10:48:02;98729.94;;;3.38;100.00
7433;BME280;32233;49.500;7.764;2023-12-20T10:50:30;98734.50;;;3.36;100.00
7433;BME280;32233;49.500;7.764;2023-12-20T10:52:58;98733.78;;;3.43;100.00
7433;BME280;32233;49.500;7.764;2023-12-20T10:55:25;98731.97;;;3.44;100.00
7433;BME280;32233;49.500;7.764;2023-12-20T10:58:01;98737.34;;;3.42;100.00
7433;BME280;32233;49.500;7.764;2023-12-20T11:00:31;98735.88;;;3.40;100.00
7433;BME280;32233;49.500;7.764;2023-12-20T11:03:02;98725.69;;;3.37;100.00
7433;BME280;32233;49.500;7.764;2023-12-20T11:08:47;98735.13;;;3.47;100.00
7433;BME280;32233;49.500;7.764;2023-12-20T11:11:26;98739.53;;;3.47;100.00
7433;BME280;32233;49.500;7.764;2023-12-20T11:13:59;98732.63;;;3.46;100.00
7433;BME280;32233;49.500;7.764;2023-12-20T11:16:26;98729.38;;;3.44;100.00
7433;BME280;32233;49.500;7.764;2023-12-20T11:19:06;98726.75;;;3.44;100.00
7433;BME280;32233;49.500;7.764;2023-12-20T11:21:33;98718.75;;;3.45;100.00
7433;BME280;32233;49.500;7.764;2023-12-20T11:24:01;98723.84;;;3.47;100.00
7433;BME280;32233;49.500;7.764;2023-12-20T11:26:29;98717.84;;;3.55;100.00
7433;BME280;32233;49.500;7.764;2023-12-20T11:29:32;98722.50;;;3.61;100.00
7433;BME280;32233;49.500;7.764;2023-12-20T11:34:59;98715.63;;;3.60;100.00
7433;BME280;32233;49.500;7.764;2023-12-20T11:37:30;98718.38;;;3.58;100.00
7433;BME280;32233;49.500;7.764;2023-12-20T11:40:08;98724.66;;;3.65;100.00
7433;BME280;32233;49.500;7.764;2023-12-20T11:42:39;98726.34;;;3.75;100.00
7433;BME280;32233;49.500;7.764;2023-12-20T11:45:13;98718.00;;;3.89;100.00
7433;BME280;32233;49.500;7.764;2023-12-20T11:47:43;98723.94;;;3.99;100.00
7433;BME280;32233;49.500;7.764;2023-12-20T11:50:12;98733.44;;;4.00;100.00
7433;BME280;32233;49.500;7.764;2023-12-20T11:52:39;98736.50;;;3.95;100.00
7433;BME280;32233;49.500;7.764;2023-12-20T11:55:05;98732.94;;;3.96;100.00
7433;BME280;32233;49.500;7.764;2023-12-20T11:57:33;98721.59;;;3.88;100.00
7433;BME280;32233;49.500;7.764;2023-12-20T12:00:00;98727.41;;;3.82;100.00
7433;BME280;32233;49.500;7.764;2023-12-20T12:02:26;98728.53;;;3.79;100.00
7433;BME280;32233;49.500;7.764;2023-12-20T12:04:53;98736.69;;;3.76;100.00
7433;BME280;32233;49.500;7.764;2023-12-20T12:07:20;98724.88;;;3.72;100.00
7433;BME280;32233;49.500;7.764;2023-12-20T12:09:46;98721.44;;;3.71;100.00
7433;BME280;32233;49.500;7.764;2023-12-20T12:12:14;98727.63;;;3.70;100.00
7433;BME280;32233;49.500;7.764;2023-12-20T12:14:41;98718.44;;;3.66;100.00
7433;BME280;32233;49.500;7.764;2023-12-20T12:17:11;98714.50;;;3.62;100.00
7433;BME280;32233;49.500;7.764;2023-12-20T12:19:40;98718.91;;;3.62;100.00
7433;BME280;32233;49.500;7.764;2023-12-20T12:22:09;98721.97;;;3.57;100.00
7433;BME280;32233;49.500;7.764;2023-12-20T12:24:43;98722.41;;;4.14;100.00
7433;BME280;32233;49.500;7.764;2023-12-20T12:27:15;98732.34;;;3.67;100.00
7433;BME280;32233;49.500;7.764;2023-12-20T12:30:03;98722.03;;;3.65;100.00
7433;BME280;32233;49.500;7.764;2023-12-20T12:32:30;98722.41;;;3.70;100.00
7433;BME280;32233;49.500;7.764;2023-12-20T12:34:58;98723.28;;;3.79;100.00
7433;BME280;32233;49.500;7.764;2023-12-20T12:37:25;98731.13;;;3.79;100.00
7433;BME280;32233;49.500;7.764;2023-12-20T12:39:53;98731.75;;;3.73;100.00
7433;BME280;32233;49.500;7.764;2023-12-20T12:42:21;98719.19;;;3.77;100.00
7433;BME280;32233;49.500;7.764;2023-12-20T12:44:48;98715.22;;;3.90;100.00
7433;BME280;32233;49.500;7.764;2023-12-20T12:47:14;98699.06;;;3.95;100.00
7433;BME280;32233;49.500;7.764;2023-12-20T12:49:41;98703.59;;;4.11;100.00
7433;BME280;32233;49.500;7.764;2023-12-20T12:52:08;98700.50;;;4.15;100.00
7433;BME280;32233;49.500;7.764;2023-12-20T12:54:34;98696.25;;;4.14;100.00
7433;BME280;32233;49.500;7.764;2023-12-20T12:57:01;98700.38;;;4.17;100.00
7433;BME280;32233;49.500;7.764;2023-12-20T12:59:28;98689.53;;;4.12;100.00
7433;BME280;32233;49.500;7.764;2023-12-20T13:01:54;98687.00;;;4.28;100.00
7433;BME280;32233;49.500;7.764;2023-12-20T13:04:21;98679.00;;;4.30;100.00
7433;BME280;32233;49.500;7.764;2023-12-20T13:06:47;98667.13;;;4.09;100.00
7433;BME280;32233;49.500;7.764;2023-12-20T13:09:14;98654.59;;;3.95;100.00
7433;BME280;32233;49.500;7.764;2023-12-20T13:11:41;98652.69;;;3.79;100.00
7433;BME280;32233;49.500;7.764;2023-12-20T13:14:08;98648.09;;;3.73;100.00
7433;BME280;32233;49.500;7.764;2023-12-20T13:16:37;98647.16;;;3.82;100.00
7433;BME280;32233;49.500;7.764;2023-12-20T13:19:03;98641.56;;;3.77;100.00